Time;durP1;ratioP1;P1;durP2;ratioP2;P2;SDS_P1;SDS_P2;PMS_P1;PMS_P2;Temp;Humidity;BMP_temperature;BMP_pressure;BME280_temperature;BME280_humidity;BME280_pressure;Samples;Min_cycle;Max_cycle;Signal;HPM_P1;HPM_P2
2023/08/28 00:02:02;;;;;;;12.43;7.83;;;13.70;99.90;;;;;;5048218;28;20312;-83
2023/08/28 00:04:28;;;;;;;13.57;7.80;;;13.60;99.90;;;;;;5041869;28;20213;-86
2023/08/28 00:06:56;;;;;;;10.03;7.10;;;13.50;99.90;;;;;;5051931;28;20953;-82
2023/08/28 00:09:23;;;;;;;13.63;8.57;;;13.60;99.90;;;;;;5057679;28;20197;-82
2023/08/28 00:11:50;;;;;;;15.70;8.30;;;13.50;99.90;;;;;;5060052;28;20270;-85
2023/08/28 00:14:17;;;;;;;13.90;8.20;;;13.50;99.90;;;;;;5057407;28;20204;-83
2023/08/28 00:16:44;;;;;;;13.70;8.60;;;13.50;99.90;;;;;;5065007;28;20335;-84
2023/08/28 00:19:10;;;;;;;13.43;8.50;;;13.50;99.90;;;;;;5053868;28;20258;-84
2023/08/28 00:21:37;;;;;;;12.87;8.00;;;13.40;99.90;;;;;;5057368;28;20250;-86
2023/08/28 00:24:05;;;;;;;13.03;9.20;;;13.50;99.90;;;;;;5057635;28;20347;-83
2023/08/28 00:26:32;;;;;;;11.90;8.73;;;13.40;99.90;;;;;;5061512;28;20303;-83
2023/08/28 00:28:59;;;;;;;12.70;8.27;;;13.40;99.90;;;;;;5070967;28;20196;-81
2023/08/28 00:31:26;;;;;;;11.43;7.63;;;13.40;99.90;;;;;;5067673;28;20221;-82
2023/08/28 00:33:53;;;;;;;10.97;7.93;;;13.40;99.90;;;;;;5061430;28;20213;-82
2023/08/28 00:36:20;;;;;;;12.57;8.13;;;13.50;99.90;;;;;;5061008;28;20294;-82
2023/08/28 00:38:47;;;;;;;12.77;9.07;;;13.50;99.90;;;;;;5061439;28;20657;-83
2023/08/28 00:41:14;;;;;;;14.53;8.70;;;13.50;99.90;;;;;;5052315;28;20199;-82
2023/08/28 00:43:41;;;;;;;14.43;8.70;;;13.40;99.90;;;;;;5053207;28;20270;-82
2023/08/28 00:46:08;;;;;;;16.03;8.90;;;13.40;99.90;;;;;;5050872;28;20244;-84
2023/08/28 00:48:35;;;;;;;15.37;9.33;;;13.40;99.90;;;;;;5052999;28;20236;-82
2023/08/28 00:51:03;;;;;;;12.90;8.63;;;13.50;99.90;;;;;;5067496;28;20545;-82
2023/08/28 00:53:34;;;;;;;12.10;7.93;;;13.50;99.90;;;;;;5066567;28;20200;-83
2023/08/28 00:56:01;;;;;;;14.13;8.30;;;13.50;99.90;;;;;;5056676;28;20212;-82
2023/08/28 00:58:28;;;;;;;13.40;8.13;;;13.50;99.90;;;;;;5069797;28;20205;-82
2023/08/28 01:00:55;;;;;;;12.63;8.20;;;13.50;99.90;;;;;;5051499;28;20239;-81
2023/08/28 01:03:21;;;;;;;11.77;8.13;;;13.50;99.90;;;;;;5051641;28;20213;-81
2023/08/28 01:06:01;;;;;;;10.80;8.20;;;13.50;99.90;;;;;;5052233;28;20200;-82
2023/08/28 01:09:06;;;;;;;10.63;7.87;;;13.60;99.90;;;;;;5054501;28;20209;-83
2023/08/28 01:11:47;;;;;;;11.83;8.37;;;13.60;99.90;;;;;;5057286;28;20221;-83
2023/08/28 01:14:27;;;;;;;11.20;7.50;;;13.60;99.90;;;;;;5064269;28;20596;-82
2023/08/28 01:16:59;;;;;;;12.63;8.20;;;13.50;99.90;;;;;;5058868;28;20596;-81
2023/08/28 01:19:36;;;;;;;12.13;8.50;;;13.40;99.90;;;;;;5051040;28;20264;-82
2023/08/28 01:22:32;;;;;;;11.30;7.40;;;13.50;99.90;;;;;;5059498;28;20197;-81
2023/08/28 01:25:10;;;;;;;11.03;7.40;;;13.50;99.90;;;;;;5041660;28;20220;-83
2023/08/28 01:27:38;;;;;;;11.63;7.77;;;13.50;99.90;;;;;;5071440;28;20704;-82
2023/08/28 01:30:07;;;;;;;12.10;8.13;;;13.50;99.90;;;;;;5072636;28;20204;-80
2023/08/28 01:32:34;;;;;;;12.80;7.60;;;13.50;99.90;;;;;;5056300;28;20236;-82
2023/08/28 01:35:04;;;;;;;12.60;7.87;;;13.50;99.90;;;;;;5060937;28;20201;-81
2023/08/28 01:37:42;;;;;;;12.50;7.93;;;13.50;99.90;;;;;;5065032;28;20638;-81
2023/08/28 01:40:12;;;;;;;12.00;7.57;;;13.50;99.90;;;;;;5052089;28;20205;-82
2023/08/28 01:42:39;;;;;;;12.10;8.37;;;13.50;99.90;;;;;;5059457;28;20745;-80
2023/08/28 01:45:07;;;;;;;11.80;8.03;;;13.50;99.90;;;;;;5061176;28;20209;-81
2023/08/28 01:47:34;;;;;;;11.00;7.30;;;13.50;99.90;;;;;;5063669;28;20227;-81
2023/08/28 01:50:02;;;;;;;12.83;7.83;;;13.50;99.90;;;;;;5057831;28;20262;-80
2023/08/28 01:52:29;;;;;;;10.53;7.33;;;13.50;99.90;;;;;;5061728;28;20554;-81
2023/08/28 01:54:56;;;;;;;11.73;7.87;;;13.50;99.90;;;;;;5069744;28;20204;-81
2023/08/28 01:57:23;;;;;;;10.70;7.80;;;13.50;99.90;;;;;;5063658;28;20262;-82
2023/08/28 01:59:50;;;;;;;11.10;7.80;;;13.40;99.90;;;;;;5071717;28;20208;-81
2023/08/28 02:02:16;;;;;;;12.53;7.90;;;13.40;99.90;;;;;;5070444;28;20213;-83
2023/08/28 02:04:43;;;;;;;10.97;7.67;;;13.40;99.90;;;;;;5067595;28;20634;-83
2023/08/28 02:07:10;;;;;;;14.40;8.67;;;13.40;99.90;;;;;;5051436;28;20232;-84
2023/08/28 02:09:37;;;;;;;10.80;7.53;;;13.30;99.90;;;;;;5064962;28;20220;-83
2023/08/28 02:12:05;;;;;;;14.80;8.43;;;13.40;99.90;;;;;;5051814;28;20295;-84
2023/08/28 02:14:32;;;;;;;11.90;7.77;;;13.40;99.90;;;;;;5064669;28;20205;-83
2023/08/28 02:16:59;;;;;;;10.40;7.77;;;13.40;99.90;;;;;;5059532;28;20247;-83
2023/08/28 02:19:26;;;;;;;10.83;8.00;;;13.40;99.90;;;;;;5067171;28;20234;-82
2023/08/28 02:21:53;;;;;;;14.73;8.40;;;13.50;99.90;;;;;;5054114;28;20288;-83
2023/08/28 02:24:21;;;;;;;11.40;8.23;;;13.40;99.90;;;;;;5050623;28;20250;-83
2023/08/28 02:26:48;;;;;;;11.13;7.50;;;13.40;99.90;;;;;;5051652;28;20228;-83
2023/08/28 02:29:15;;;;;;;8.90;7.43;;;13.40;99.90;;;;;;5050719;28;20204;-82
2023/08/28 02:31:42;;;;;;;12.10;8.57;;;13.30;99.90;;;;;;5053016;28;20220;-84
2023/08/28 02:34:09;;;;;;;14.30;8.57;;;13.30;99.90;;;;;;5059975;28;20209;-83
2023/08/28 02:36:36;;;;;;;12.80;8.53;;;13.30;99.90;;;;;;5058343;28;20205;-83
2023/08/28 02:39:04;;;;;;;12.33;8.20;;;13.30;99.90;;;;;;5050628;28;20216;-82
2023/08/28 02:41:31;;;;;;;13.00;8.57;;;13.20;99.90;;;;;;5054287;28;20254;-84
2023/08/28 02:43:57;;;;;;;11.80;8.10;;;13.20;99.90;;;;;;5051560;28;20684;-83
2023/08/28 02:46:25;;;;;;;13.67;8.60;;;13.20;99.90;;;;;;5059447;28;20316;-83
2023/08/28 02:48:52;;;;;;;12.50;9.10;;;13.30;99.90;;;;;;5063928;28;20225;-82
2023/08/28 02:51:19;;;;;;;16.40;8.23;;;13.20;99.90;;;;;;5060302;28;20269;-85
2023/08/28 02:53:45;;;;;;;14.20;8.77;;;13.20;99.90;;;;;;5052047;28;20228;-84
2023/08/28 02:56:25;;;;;;;12.33;8.93;;;13.20;99.90;;;;;;5053265;28;20228;-84
2023/08/28 02:58:57;;;;;;;12.70;8.83;;;13.20;99.90;;;;;;5050276;28;20205;-83
2023/08/28 03:01:24;;;;;;;14.83;9.43;;;13.20;99.90;;;;;;5062421;28;20239;-83
2023/08/28 03:03:51;;;;;;;14.00;9.40;;;13.20;99.90;;;;;;5063754;28;20249;-83
2023/08/28 03:06:18;;;;;;;16.53;10.77;;;13.10;99.90;;;;;;5060244;28;20208;-82
2023/08/28 03:08:45;;;;;;;17.27;9.97;;;13.00;99.90;;;;;;5056125;28;20227;-82
2023/08/28 03:11:12;;;;;;;11.87;8.20;;;13.10;99.90;;;;;;5057405;28;20201;-81
2023/08/28 03:13:39;;;;;;;15.00;9.80;;;13.10;99.90;;;;;;5059946;28;20204;-85
2023/08/28 03:16:06;;;;;;;14.93;9.73;;;13.10;99.90;;;;;;5060753;28;20254;-82
2023/08/28 03:18:33;;;;;;;18.03;10.90;;;13.10;99.90;;;;;;5063489;28;20263;-84
2023/08/28 03:21:00;;;;;;;15.47;9.73;;;13.10;99.90;;;;;;5050555;28;20205;-81
2023/08/28 03:23:28;;;;;;;14.43;9.60;;;13.10;99.90;;;;;;5053438;28;20287;-84
2023/08/28 03:25:55;;;;;;;16.37;10.07;;;13.00;99.90;;;;;;5056624;28;20239;-82
2023/08/28 03:28:22;;;;;;;17.20;10.43;;;13.00;99.90;;;;;;5054941;28;20247;-82
2023/08/28 03:30:49;;;;;;;12.97;9.27;;;13.00;99.90;;;;;;5067929;28;20220;-81
2023/08/28 03:33:16;;;;;;;16.03;10.10;;;13.00;99.90;;;;;;5048223;28;20209;-82
2023/08/28 03:35:43;;;;;;;14.77;9.60;;;13.00;99.90;;;;;;5050850;28;20224;-82
2023/08/28 03:38:11;;;;;;;15.10;9.73;;;13.10;99.90;;;;;;5061989;28;20362;-82
2023/08/28 03:40:38;;;;;;;16.27;10.40;;;12.90;99.90;;;;;;5062832;28;20213;-81
2023/08/28 03:43:05;;;;;;;16.77;11.00;;;13.10;99.90;;;;;;5062091;28;20220;-81
2023/08/28 03:45:32;;;;;;;16.90;10.40;;;12.90;99.90;;;;;;5061062;28;20224;-82
2023/08/28 03:47:58;;;;;;;18.57;11.30;;;13.00;99.90;;;;;;5054190;28;20228;-83
2023/08/28 03:50:28;;;;;;;18.20;10.90;;;12.90;99.90;;;;;;5050310;28;20201;-83
2023/08/28 03:52:57;;;;;;;14.30;10.00;;;12.90;99.90;;;;;;5057257;28;20708;-83
2023/08/28 03:55:24;;;;;;;17.37;10.80;;;12.90;99.90;;;;;;5067213;28;20283;-83
2023/08/28 03:57:53;;;;;;;18.67;11.03;;;12.90;99.90;;;;;;5051687;28;20208;-83
2023/08/28 04:00:20;;;;;;;15.53;11.00;;;12.90;99.90;;;;;;5049883;28;20204;-83
2023/08/28 04:02:48;;;;;;;15.37;10.10;;;12.90;99.90;;;;;;5067329;28;20310;-84
2023/08/28 04:05:18;;;;;;;14.97;10.40;;;12.90;99.90;;;;;;5055164;28;20212;-82
2023/08/28 04:07:45;;;;;;;16.60;10.13;;;12.90;99.90;;;;;;5053856;28;20230;-83
2023/08/28 04:10:12;;;;;;;15.90;10.57;;;12.90;99.90;;;;;;5047839;28;20919;-82
2023/08/28 04:12:39;;;;;;;16.93;11.23;;;12.90;99.90;;;;;;5049011;28;20205;-81
2023/08/28 04:15:08;;;;;;;16.27;10.27;;;12.90;99.90;;;;;;5047975;28;20213;-82
2023/08/28 04:17:36;;;;;;;20.53;11.83;;;12.90;99.90;;;;;;5047969;28;20584;-84
2023/08/28 04:20:12;;;;;;;24.13;11.33;;;12.90;99.90;;;;;;5062583;28;20208;-81
2023/08/28 04:22:46;;;;;;;20.83;11.43;;;12.90;99.90;;;;;;5056954;28;20216;-83
2023/08/28 04:25:13;;;;;;;18.57;11.67;;;12.90;99.90;;;;;;5049573;28;20216;-82
2023/08/28 04:27:41;;;;;;;19.83;11.83;;;12.90;99.90;;;;;;5049229;28;20318;-81
2023/08/28 04:30:09;;;;;;;18.70;11.43;;;12.90;99.90;;;;;;5049131;28;20209;-82
2023/08/28 04:32:36;;;;;;;24.23;11.80;;;12.80;99.90;;;;;;5066442;28;20750;-83
2023/08/28 04:35:03;;;;;;;21.40;12.93;;;13.00;99.90;;;;;;5054160;28;20205;-81
2023/08/28 04:37:30;;;;;;;21.30;12.47;;;13.00;99.90;;;;;;5057679;28;20265;-82
2023/08/28 04:39:57;;;;;;;19.97;11.73;;;13.10;99.90;;;;;;5065463;28;20213;-81
2023/08/28 04:42:24;;;;;;;24.67;12.83;;;13.10;99.90;;;;;;5055896;28;20212;-84
2023/08/28 04:44:51;;;;;;;20.93;11.90;;;13.30;99.90;;;;;;5057556;28;20193;-82
2023/08/28 04:47:18;;;;;;;22.10;12.43;;;13.30;99.90;;;;;;5068152;28;22247;-81
2023/08/28 04:49:44;;;;;;;24.17;12.07;;;13.30;99.90;;;;;;5052386;28;20205;-82
2023/08/28 04:52:11;;;;;;;20.17;11.87;;;13.40;99.90;;;;;;5050417;28;20216;-82
2023/08/28 04:54:38;;;;;;;20.10;11.73;;;13.50;99.90;;;;;;5054832;28;20209;-82
2023/08/28 04:57:05;;;;;;;19.80;11.70;;;13.50;99.90;;;;;;5062663;28;20902;-82
2023/08/28 04:59:32;;;;;;;23.17;11.83;;;13.50;99.90;;;;;;5057740;28;20204;-82
2023/08/28 05:01:58;;;;;;;20.23;12.03;;;13.60;99.90;;;;;;5067479;28;20216;-84
2023/08/28 05:04:25;;;;;;;20.73;12.17;;;13.60;99.90;;;;;;5055484;28;20196;-83
2023/08/28 05:06:52;;;;;;;22.63;11.93;;;13.70;99.90;;;;;;5051060;28;20208;-81
2023/08/28 05:09:20;;;;;;;23.23;12.90;;;13.80;99.90;;;;;;5065439;28;20224;-80
2023/08/28 05:11:46;;;;;;;20.53;12.50;;;13.70;99.90;;;;;;5056754;28;20280;-83
2023/08/28 05:14:13;;;;;;;19.73;11.23;;;13.60;99.90;;;;;;5052219;28;20205;-81
2023/08/28 05:16:40;;;;;;;19.37;11.80;;;13.80;99.90;;;;;;5056632;28;20217;-84
2023/08/28 05:19:07;;;;;;;20.70;11.57;;;13.80;99.90;;;;;;5064035;28;20274;-84
2023/08/28 05:21:34;;;;;;;20.83;12.27;;;13.80;99.90;;;;;;5055854;28;20197;-81
2023/08/28 05:24:01;;;;;;;19.83;11.77;;;13.90;99.90;;;;;;5052330;28;20308;-82
2023/08/28 05:26:28;;;;;;;19.27;11.13;;;13.90;99.90;;;;;;5060566;28;20197;-84
2023/08/28 05:28:55;;;;;;;19.20;10.80;;;14.00;99.90;;;;;;5057362;28;20350;-84
2023/08/28 05:31:22;;;;;;;19.87;11.40;;;14.10;99.90;;;;;;5052196;28;20217;-84
2023/08/28 05:33:49;;;;;;;17.90;10.60;;;14.20;99.90;;;;;;5055872;28;20525;-84
2023/08/28 05:36:16;;;;;;;22.50;11.33;;;14.30;99.90;;;;;;5067012;28;20215;-84
2023/08/28 05:38:43;;;;;;;19.07;10.90;;;14.30;99.90;;;;;;5056241;28;20247;-84
2023/08/28 05:41:10;;;;;;;19.20;11.30;;;14.40;99.90;;;;;;5058833;28;20197;-85
2023/08/28 05:43:37;;;;;;;19.03;11.43;;;14.40;99.90;;;;;;5057068;28;20196;-84
2023/08/28 05:46:04;;;;;;;18.83;11.10;;;14.50;99.90;;;;;;5051567;28;20698;-82
2023/08/28 05:48:30;;;;;;;19.30;10.73;;;14.60;99.90;;;;;;5064792;28;20677;-84
2023/08/28 05:50:58;;;;;;;19.47;11.37;;;14.70;99.90;;;;;;5054889;28;20198;-82
2023/08/28 05:53:24;;;;;;;17.17;10.70;;;14.60;99.90;;;;;;5053951;28;20270;-83
2023/08/28 05:55:51;;;;;;;15.47;10.07;;;14.70;99.90;;;;;;5059376;28;20654;-83
2023/08/28 05:58:18;;;;;;;19.57;10.57;;;14.70;99.90;;;;;;5056152;28;20619;-84
2023/08/28 06:00:45;;;;;;;16.33;9.57;;;14.80;99.90;;;;;;5054300;28;20241;-85
2023/08/28 06:03:12;;;;;;;16.90;9.80;;;14.80;99.90;;;;;;5064360;28;20290;-82
2023/08/28 06:05:39;;;;;;;16.37;9.10;;;14.80;99.90;;;;;;5053896;28;20208;-84
2023/08/28 06:08:06;;;;;;;15.33;9.80;;;14.80;99.90;;;;;;5057367;28;20236;-82
2023/08/28 06:10:38;;;;;;;11.93;8.23;;;14.80;99.90;;;;;;5070360;28;20200;-83
2023/08/28 06:13:06;;;;;;;14.67;9.00;;;14.80;99.90;;;;;;5058822;28;20211;-79
2023/08/28 06:15:33;;;;;;;13.63;8.83;;;14.80;99.90;;;;;;5068092;28;20215;-83
2023/08/28 06:18:00;;;;;;;14.97;9.00;;;14.90;99.90;;;;;;5053072;28;20626;-84
2023/08/28 06:20:27;;;;;;;12.57;8.33;;;14.90;99.90;;;;;;5052542;28;20237;-83
2023/08/28 06:22:56;;;;;;;11.27;8.67;;;14.90;99.90;;;;;;5050778;28;20557;-82
2023/08/28 06:25:23;;;;;;;16.60;9.80;;;15.00;99.90;;;;;;5050794;28;20205;-82
2023/08/28 06:27:50;;;;;;;13.30;6.88;;;15.50;99.90;;;;;;5069793;28;20508;-82
2023/08/28 06:30:17;;;;;;;7.78;5.80;;;16.30;99.90;;;;;;5069274;28;20265;-83
2023/08/28 06:32:44;;;;;;;8.25;5.70;;;17.20;99.90;;;;;;5069665;28;20197;-82
2023/08/28 06:35:10;;;;;;;9.70;4.93;;;17.90;99.90;;;;;;5052313;28;20208;-82
2023/08/28 06:37:37;;;;;;;5.10;3.97;;;18.80;99.90;;;;;;5050452;28;20217;-83
2023/08/28 06:40:08;;;;;;;6.30;4.07;;;19.70;99.90;;;;;;5049279;28;20240;-85
2023/08/28 06:42:36;;;;;;;5.25;3.53;;;20.50;99.90;;;;;;5063494;28;20220;-84
2023/08/28 06:45:06;;;;;;;4.32;3.13;;;21.30;99.90;;;;;;5063732;28;20273;-83
2023/08/28 06:47:33;;;;;;;5.45;3.70;;;22.00;99.90;;;;;;5053611;28;20283;-85
2023/08/28 06:50:03;;;;;;;5.30;3.72;;;22.50;99.90;;;;;;5062152;28;20227;-85
2023/08/28 06:52:29;;;;;;;5.75;3.80;;;22.20;99.90;;;;;;5054768;28;20251;-84
2023/08/28 06:54:56;;;;;;;5.03;3.63;;;21.80;99.90;;;;;;5051907;28;20308;-83
2023/08/28 06:57:23;;;;;;;4.82;3.80;;;21.80;99.90;;;;;;5054453;28;20266;-84
2023/08/28 06:59:50;;;;;;;6.60;3.70;;;21.60;99.90;;;;;;5054396;28;20216;-84
2023/08/28 07:02:17;;;;;;;3.90;3.40;;;21.90;99.90;;;;;;5049748;28;20226;-84
2023/08/28 07:04:44;;;;;;;4.20;3.13;;;22.00;99.90;;;;;;5060847;28;20207;-85
2023/08/28 07:07:17;;;;;;;3.80;3.35;;;22.00;99.90;;;;;;5063883;28;20201;-83
2023/08/28 07:09:44;;;;;;;4.40;3.00;;;22.20;99.90;;;;;;5063557;28;20228;-85
2023/08/28 07:12:11;;;;;;;3.60;3.15;;;22.80;99.90;;;;;;5050114;28;20273;-88
2023/08/28 07:14:38;;;;;;;4.15;2.85;;;23.30;99.90;;;;;;5061005;28;20216;-86
2023/08/28 07:17:05;;;;;;;3.55;2.40;;;23.60;99.90;;;;;;5050901;28;20216;-86
2023/08/28 07:19:32;;;;;;;4.97;2.63;;;23.90;99.90;;;;;;5050425;28;20211;-86
2023/08/28 07:22:00;;;;;;;3.17;2.00;;;24.40;99.90;;;;;;5051058;28;20201;-84
2023/08/28 07:24:27;;;;;;;2.95;2.17;;;24.80;99.90;;;;;;5056712;28;20270;-85
2023/08/28 07:26:55;;;;;;;3.45;2.38;;;25.00;99.90;;;;;;5060438;28;20209;-86
2023/08/28 07:29:21;;;;;;;3.05;1.90;;;25.10;99.90;;;;;;5058629;28;20221;-86
2023/08/28 07:31:55;;;;;;;1.80;1.60;;;25.40;99.90;;;;;;5068643;28;20224;-86
2023/08/28 07:34:22;;;;;;;4.60;2.25;;;25.70;99.90;;;;;;5053085;28;20658;-83
2023/08/28 07:36:49;;;;;;;2.22;2.03;;;25.80;99.90;;;;;;5058272;28;20193;-84
2023/08/28 07:39:16;;;;;;;3.08;2.08;;;26.10;99.90;;;;;;5052069;28;20200;-85
2023/08/28 07:41:43;;;;;;;2.80;1.90;;;26.00;99.90;;;;;;5060620;28;20201;-86
2023/08/28 07:44:09;;;;;;;3.17;2.10;;;26.20;99.90;;;;;;5049479;28;20251;-86
2023/08/28 07:46:37;;;;;;;2.65;2.05;;;26.20;99.90;;;;;;5059767;28;20228;-85
2023/08/28 07:49:04;;;;;;;1.85;1.75;;;26.50;99.90;;;;;;5068911;28;20231;-87
2023/08/28 07:51:31;;;;;;;1.95;1.75;;;26.70;99.90;;;;;;5061917;28;20223;-84
2023/08/28 07:53:57;;;;;;;2.67;1.80;;;26.90;99.90;;;;;;5051922;28;20201;-85
2023/08/28 07:56:24;;;;;;;2.05;1.42;;;27.10;99.90;;;;;;5056958;28;20201;-86
2023/08/28 07:58:51;;;;;;;1.83;1.30;;;27.40;99.90;;;;;;5069871;28;20270;-87
2023/08/28 08:01:18;;;;;;;1.70;0.90;;;27.50;99.90;;;;;;5067348;28;20436;-83
2023/08/28 08:03:45;;;;;;;2.25;1.05;;;27.10;99.90;;;;;;5056067;28;20208;-83
2023/08/28 08:06:12;;;;;;;2.35;1.00;;;26.60;99.90;;;;;;5067392;28;20193;-83
2023/08/28 08:08:39;;;;;;;1.17;0.80;;;26.40;99.90;;;;;;5053404;28;20229;-85
2023/08/28 08:11:06;;;;;;;1.17;0.80;;;26.20;99.90;;;;;;5054119;28;20246;-84
2023/08/28 08:13:33;;;;;;;1.02;0.75;;;26.10;99.90;;;;;;5062994;28;20687;-85
2023/08/28 08:16:00;;;;;;;1.60;0.80;;;25.80;99.90;;;;;;5063189;28;20220;-87
2023/08/28 08:18:26;;;;;;;2.55;0.80;;;26.00;99.90;;;;;;5051035;28;20288;-86
2023/08/28 08:20:53;;;;;;;1.30;1.10;;;25.70;99.90;;;;;;5061633;28;20201;-86
2023/08/28 08:23:20;;;;;;;1.25;0.88;;;25.70;99.90;;;;;;5061669;28;20212;-86
2023/08/28 08:25:47;;;;;;;1.80;0.80;;;25.70;99.90;;;;;;5049526;28;20203;-85
2023/08/28 08:28:15;;;;;;;2.22;0.88;;;25.80;99.90;;;;;;5052190;28;20193;-85
2023/08/28 08:30:42;;;;;;;1.35;1.00;;;25.80;99.90;;;;;;5062383;28;20216;-84
2023/08/28 08:33:10;;;;;;;1.75;0.75;;;25.80;99.90;;;;;;5049138;28;20259;-84
2023/08/28 08:35:37;;;;;;;1.90;0.90;;;25.70;99.90;;;;;;5059629;28;20216;-85
2023/08/28 08:38:04;;;;;;;2.83;0.88;;;25.80;99.90;;;;;;5050562;28;20229;-86
2023/08/28 08:40:34;;;;;;;2.25;0.70;;;25.90;99.90;;;;;;5055343;28;20266;-85
2023/08/28 08:43:01;;;;;;;0.80;0.70;;;25.90;99.90;;;;;;5059231;28;20254;-86
2023/08/28 08:45:29;;;;;;;1.52;0.65;;;25.90;99.90;;;;;;5072366;28;20240;-86
2023/08/28 08:48:00;;;;;;;3.28;0.98;;;26.10;99.90;;;;;;5058395;28;20213;-86
2023/08/28 08:50:28;;;;;;;1.15;1.00;;;25.60;99.90;;;;;;5055348;28;20221;-85
2023/08/28 08:53:14;;;;;;;1.17;0.80;;;25.50;99.90;;;;;;5059459;28;20674;-86
2023/08/28 08:55:54;;;;;;;1.33;0.77;;;25.50;99.90;;;;;;5070276;28;20204;-84
2023/08/28 08:58:21;;;;;;;1.45;0.57;;;26.00;99.90;;;;;;5066367;28;20192;-86
2023/08/28 09:00:49;;;;;;;2.90;0.90;;;26.20;99.90;;;;;;5063682;28;20221;-87
2023/08/28 09:03:17;;;;;;;0.50;0.50;;;26.20;99.90;;;;;;5064226;28;20289;-86
2023/08/28 09:05:47;;;;;;;2.67;0.80;;;26.00;99.90;;;;;;5066479;28;20220;-87
2023/08/28 09:08:15;;;;;;;1.15;0.88;;;25.80;99.90;;;;;;5058709;28;20194;-87
2023/08/28 09:10:46;;;;;;;1.73;0.70;;;25.10;99.90;;;;;;5060075;28;20209;-85
2023/08/28 09:13:13;;;;;;;1.60;0.70;;;24.30;99.90;;;;;;5062663;28;20257;-83
2023/08/28 09:15:40;;;;;;;1.10;1.00;;;23.90;99.90;;;;;;5057580;28;20232;-86
2023/08/28 09:18:09;;;;;;;1.00;0.88;;;23.60;99.90;;;;;;5058782;28;20201;-84
2023/08/28 09:20:36;;;;;;;1.13;0.80;;;23.80;99.90;;;;;;5065014;28;20539;-83
2023/08/28 09:23:03;;;;;;;1.38;0.75;;;23.90;99.90;;;;;;5065377;28;20223;-83
2023/08/28 09:25:32;;;;;;;1.58;0.60;;;24.40;99.90;;;;;;5060489;28;20197;-85
2023/08/28 09:27:59;;;;;;;1.58;0.60;;;24.70;99.90;;;;;;5057995;28;20202;-82
2023/08/28 09:30:32;;;;;;;1.02;0.80;;;24.90;99.90;;;;;;5061400;28;20316;-83
2023/08/28 09:33:01;;;;;;;1.10;0.60;;;25.00;99.90;;;;;;5067308;28;20215;-83
2023/08/28 09:35:36;;;;;;;1.08;0.70;;;24.90;99.90;;;;;;5056275;28;20331;-84
2023/08/28 09:38:03;;;;;;;1.35;0.73;;;24.70;99.90;;;;;;5065135;28;20688;-82
2023/08/28 09:40:36;;;;;;;0.77;0.60;;;24.30;99.90;;;;;;5062969;28;20209;-83
2023/08/28 09:43:14;;;;;;;1.23;0.73;;;24.10;99.90;;;;;;5057126;28;20572;-83
2023/08/28 09:45:45;;;;;;;1.05;0.90;;;24.10;99.90;;;;;;5051436;28;20271;-83
2023/08/28 09:48:15;;;;;;;1.58;0.80;;;24.00;99.90;;;;;;5052029;28;20299;-82
2023/08/28 09:50:43;;;;;;;2.10;0.80;;;24.10;99.90;;;;;;5054617;28;20224;-83
2023/08/28 09:53:13;;;;;;;2.65;0.80;;;24.20;99.90;;;;;;5066454;28;20224;-85
2023/08/28 09:55:46;;;;;;;1.10;0.73;;;24.20;99.90;;;;;;5067242;28;20223;-82
2023/08/28 09:58:13;;;;;;;0.85;0.70;;;24.10;99.90;;;;;;5053961;28;20204;-85
2023/08/28 10:00:41;;;;;;;2.40;0.80;;;23.90;99.90;;;;;;5054072;28;20220;-85
2023/08/28 10:03:12;;;;;;;1.38;0.60;;;23.60;99.90;;;;;;5052077;28;20271;-85
2023/08/28 10:05:43;;;;;;;0.75;0.73;;;23.30;99.90;;;;;;5051850;28;20288;-81
2023/08/28 10:08:14;;;;;;;0.77;0.75;;;23.10;99.90;;;;;;5064089;28;20258;-83
2023/08/28 10:10:46;;;;;;;1.10;0.80;;;22.80;99.90;;;;;;5057248;28;20224;-83
2023/08/28 10:13:20;;;;;;;2.08;0.80;;;22.60;99.90;;;;;;5057980;28;20193;-82
2023/08/28 10:15:56;;;;;;;0.98;0.80;;;22.70;99.90;;;;;;5051436;28;20221;-84
2023/08/28 10:18:43;;;;;;;1.30;1.20;;;22.90;99.90;;;;;;5059706;28;20204;-82
2023/08/28 10:21:10;;;;;;;1.05;0.70;;;23.10;99.90;;;;;;5058320;28;20207;-84
2023/08/28 10:23:38;;;;;;;0.65;0.65;;;23.00;99.90;;;;;;5057167;28;20212;-81
2023/08/28 10:26:06;;;;;;;1.90;0.73;;;23.00;99.90;;;;;;5052932;28;20201;-82
2023/08/28 10:28:34;;;;;;;1.30;0.70;;;23.00;99.90;;;;;;5061327;28;20200;-81
2023/08/28 10:31:01;;;;;;;2.13;0.80;;;23.20;99.90;;;;;;5061135;28;20248;-85
2023/08/28 10:33:30;;;;;;;1.45;0.60;;;23.30;99.90;;;;;;5054499;28;20292;-86
2023/08/28 10:36:00;;;;;;;1.52;0.77;;;23.10;99.90;;;;;;5054975;28;20201;-83
2023/08/28 10:38:27;;;;;;;1.73;0.90;;;23.20;99.90;;;;;;5069030;28;20201;-84
2023/08/28 10:40:58;;;;;;;1.58;0.80;;;23.50;99.90;;;;;;5054767;28;20213;-84
2023/08/28 10:43:29;;;;;;;1.05;0.70;;;23.70;99.90;;;;;;5060872;28;20670;-82
2023/08/28 10:45:59;;;;;;;1.25;0.70;;;23.70;99.90;;;;;;5063466;28;20272;-85
2023/08/28 10:48:28;;;;;;;0.80;0.63;;;23.70;99.90;;;;;;5056910;28;20229;-83
2023/08/28 10:50:59;;;;;;;1.02;0.70;;;23.80;99.90;;;;;;5059705;28;20235;-83
2023/08/28 10:53:29;;;;;;;0.77;0.77;;;23.60;99.90;;;;;;5059984;28;20244;-83
2023/08/28 10:55:57;;;;;;;0.75;0.73;;;23.50;99.90;;;;;;5067982;28;20215;-85
2023/08/28 10:58:24;;;;;;;1.95;1.08;;;23.30;99.90;;;;;;5056493;28;20267;-83
2023/08/28 11:01:09;;;;;;;1.40;0.70;;;23.30;99.90;;;;;;5056265;28;20702;-83
2023/08/28 11:03:51;;;;;;;1.45;0.90;;;23.50;99.90;;;;;;5065784;28;20200;-82
2023/08/28 11:06:47;;;;;;;1.77;0.90;;;23.50;99.90;;;;;;5056672;28;20205;-82
2023/08/28 11:09:27;;;;;;;1.02;0.70;;;23.60;99.90;;;;;;5052528;28;20228;-82
2023/08/28 11:11:57;;;;;;;1.33;0.80;;;23.70;99.90;;;;;;5059276;28;20210;-85
2023/08/28 11:14:31;;;;;;;2.15;0.70;;;23.80;99.90;;;;;;5067127;28;20227;-83
2023/08/28 11:17:12;;;;;;;0.73;0.73;;;23.80;99.90;;;;;;5058732;28;20256;-82
2023/08/28 11:19:54;;;;;;;1.10;0.68;;;23.60;99.90;;;;;;5055089;28;20219;-80
2023/08/28 11:22:30;;;;;;;0.90;0.77;;;23.70;99.90;;;;;;5059309;28;20201;-82
2023/08/28 11:24:59;;;;;;;1.38;0.85;;;23.70;99.90;;;;;;5049722;28;20550;-82
2023/08/28 11:27:35;;;;;;;0.93;0.70;;;23.80;99.90;;;;;;5050806;28;20202;-82
2023/08/28 11:30:07;;;;;;;1.40;0.80;;;23.90;99.90;;;;;;5058848;28;20593;-81
2023/08/28 11:32:35;;;;;;;1.10;0.60;;;24.20;99.90;;;;;;5062030;28;20633;-80
2023/08/28 11:35:13;;;;;;;2.72;0.77;;;24.30;99.90;;;;;;5048990;28;20607;-80
2023/08/28 11:37:42;;;;;;;0.65;0.50;;;24.50;99.90;;;;;;5057494;28;20215;-82
2023/08/28 11:40:09;;;;;;;2.30;0.70;;;24.40;99.90;;;;;;5056807;28;20200;-81
2023/08/28 11:42:37;;;;;;;1.83;0.70;;;24.60;99.90;;;;;;5059187;28;20217;-81
2023/08/28 11:45:06;;;;;;;1.63;0.70;;;24.50;99.90;;;;;;5049300;28;20266;-81
2023/08/28 11:47:34;;;;;;;0.90;0.63;;;24.30;99.90;;;;;;5047582;28;20213;-83
2023/08/28 11:50:04;;;;;;;0.73;0.65;;;24.10;99.90;;;;;;5059578;28;20319;-79
2023/08/28 11:52:31;;;;;;;1.67;0.80;;;24.00;99.90;;;;;;5064621;28;20225;-80
2023/08/28 11:55:03;;;;;;;1.00;0.68;;;23.70;99.90;;;;;;5056889;28;20287;-83
2023/08/28 11:57:32;;;;;;;1.38;0.80;;;23.50;99.90;;;;;;5053067;28;20646;-82
2023/08/28 12:00:00;;;;;;;2.40;0.70;;;23.40;99.90;;;;;;5059712;28;20204;-83
2023/08/28 12:02:29;;;;;;;1.25;0.70;;;23.60;99.90;;;;;;5053930;28;20205;-82
2023/08/28 12:04:56;;;;;;;1.35;0.80;;;23.80;99.90;;;;;;5053296;28;20209;-82
2023/08/28 12:07:29;;;;;;;0.75;0.52;;;24.10;99.90;;;;;;5067405;28;20212;-82
2023/08/28 12:09:58;;;;;;;0.63;0.63;;;24.30;99.90;;;;;;5066520;28;20224;-81
2023/08/28 12:12:26;;;;;;;0.80;0.73;;;24.30;99.90;;;;;;5073023;28;20538;-82
2023/08/28 12:14:53;;;;;;;0.88;0.70;;;24.30;99.90;;;;;;5070726;28;20207;-82
2023/08/28 12:17:26;;;;;;;0.80;0.60;;;24.40;99.90;;;;;;5057259;28;20275;-80
2023/08/28 12:19:55;;;;;;;0.55;0.55;;;24.60;99.90;;;;;;5052718;28;20208;-81
2023/08/28 12:22:24;;;;;;;0.70;0.60;;;24.70;99.90;;;;;;5061780;28;20651;-81
2023/08/28 12:24:52;;;;;;;0.70;0.70;;;24.80;99.90;;;;;;5061218;28;20219;-81
2023/08/28 12:27:27;;;;;;;1.85;0.95;;;24.90;99.90;;;;;;5066537;28;20350;-82
2023/08/28 12:29:56;;;;;;;0.88;0.52;;;25.00;99.90;;;;;;5051369;28;20239;-80
2023/08/28 12:32:24;;;;;;;2.33;0.73;;;24.90;99.90;;;;;;5054760;28;20271;-81
2023/08/28 12:34:51;;;;;;;1.25;1.15;;;24.70;99.90;;;;;;5052775;28;20251;-81
2023/08/28 12:37:18;;;;;;;0.95;0.60;;;24.60;99.90;;;;;;5052804;28;20198;-82
2023/08/28 12:39:46;;;;;;;1.67;0.63;;;24.30;99.90;;;;;;5060745;28;20197;-81
2023/08/28 12:42:14;;;;;;;1.02;0.55;;;24.10;99.90;;;;;;5060472;28;20197;-80
2023/08/28 12:44:44;;;;;;;1.13;0.80;;;24.10;99.90;;;;;;5059441;28;20208;-81
2023/08/28 12:47:15;;;;;;;1.10;0.80;;;24.00;99.90;;;;;;5057287;28;20247;-81
2023/08/28 12:49:43;;;;;;;0.60;0.60;;;23.90;99.90;;;;;;5062275;28;20220;-81